createdAt,value
2018-05-13T00:00:02.919Z,0
2018-05-13T00:01:03.013Z,0
2018-05-13T00:02:02.904Z,0
2018-05-13T00:03:03.024Z,0
2018-05-13T00:04:02.992Z,0
2018-05-13T00:05:03.011Z,0
2018-05-13T00:06:02.928Z,0
2018-05-13T00:07:02.970Z,0
2018-05-13T00:08:02.996Z,0
2018-05-13T00:09:03.023Z,0
2018-05-13T00:10:02.916Z,0
2018-05-13T00:11:03.028Z,0
2018-05-13T00:12:02.931Z,0
2018-05-13T00:13:02.909Z,0
2018-05-13T00:14:02.983Z,0
2018-05-13T00:15:03.054Z,0
2018-05-13T00:16:02.921Z,0
2018-05-13T00:17:03.016Z,0
2018-05-13T00:18:02.920Z,0
2018-05-13T00:19:02.971Z,0
2018-05-13T00:20:03.059Z,0
2018-05-13T00:21:02.930Z,0
2018-05-13T00:22:03.023Z,0
2018-05-13T00:23:03.007Z,0
2018-05-13T00:24:02.963Z,0
2018-05-13T00:25:02.934Z,0
2018-05-13T00:26:02.931Z,0
2018-05-13T00:27:02.940Z,0
2018-05-13T00:28:02.937Z,0
2018-05-13T00:29:02.937Z,0
2018-05-13T00:30:03.010Z,0
2018-05-13T00:31:02.998Z,0
2018-05-13T00:32:03.003Z,0
2018-05-13T00:33:03.068Z,0
2018-05-13T00:34:03.033Z,0
2018-05-13T00:35:02.927Z,0
2018-05-13T00:36:02.968Z,0
2018-05-13T00:37:02.969Z,0
2018-05-13T00:38:03.011Z,0
2018-05-13T00:39:03.023Z,0
2018-05-13T00:40:03.012Z,0
2018-05-13T00:41:02.944Z,0
2018-05-13T00:42:02.944Z,0
2018-05-13T00:43:02.944Z,0
2018-05-13T00:44:02.944Z,0
2018-05-13T00:45:02.963Z,0
2018-05-13T00:46:03.024Z,0
2018-05-13T00:47:02.905Z,0
2018-05-13T00:48:03.020Z,0
2018-05-13T00:49:02.947Z,0
2018-05-13T00:50:02.949Z,0
2018-05-13T00:51:02.984Z,0
2018-05-13T00:52:02.980Z,0
2018-05-13T00:53:03.023Z,0
2018-05-13T00:54:03.044Z,0
2018-05-13T00:55:02.986Z,0
2018-05-13T00:56:03.020Z,0
2018-05-13T00:57:03.049Z,0
2018-05-13T00:58:02.938Z,0
2018-05-13T00:59:03.048Z,0
2018-05-13T01:00:02.930Z,0
2018-05-13T01:01:03.049Z,0
2018-05-13T01:02:02.963Z,0
2018-05-13T01:03:03.088Z,0
2018-05-13T01:04:03.053Z,0
2018-05-13T01:05:03.024Z,0
2018-05-13T01:06:02.996Z,0
2018-05-13T01:07:03.059Z,0
2018-05-13T01:08:02.956Z,0
2018-05-13T01:09:03.029Z,0
2018-05-13T01:10:03.074Z,0
2018-05-13T01:11:03.015Z,0
2018-05-13T01:12:02.901Z,0
2018-05-13T01:13:02.935Z,0
2018-05-13T01:14:02.923Z,0
2018-05-13T01:15:02.993Z,0
2018-05-13T01:16:02.925Z,0
2018-05-13T01:17:03.027Z,0
2018-05-13T01:18:02.979Z,0
2018-05-13T01:19:02.905Z,0
2018-05-13T01:20:03.023Z,0
2018-05-13T01:21:03.011Z,0
2018-05-13T01:22:02.975Z,0
2018-05-13T01:23:02.977Z,0
2018-05-13T01:24:02.967Z,0
2018-05-13T01:25:03.079Z,0
2018-05-13T01:26:03.101Z,0
2018-05-13T01:27:03.022Z,0
2018-05-13T01:28:03.040Z,0
2018-05-13T01:29:02.981Z,0
2018-05-13T01:30:03.071Z,0
2018-05-13T01:31:02.938Z,0
2018-05-13T01:32:02.978Z,0
2018-05-13T01:33:02.978Z,0
2018-05-13T01:34:03.055Z,0
2018-05-13T01:35:02.979Z,0
2018-05-13T01:36:03.051Z,0
2018-05-13T01:37:02.999Z,0
2018-05-13T01:38:02.994Z,0
2018-05-13T01:39:03.057Z,0
2018-05-13T01:40:02.985Z,0
2018-05-13T01:41:03.035Z,0
2018-05-13T01:42:03.049Z,0
2018-05-13T01:43:02.972Z,0
2018-05-13T01:44:03.081Z,0
2018-05-13T01:45:02.997Z,0
2018-05-13T01:46:03.000Z,0
2018-05-13T01:47:03.032Z,0
2018-05-13T01:48:03.015Z,0
2018-05-13T01:49:03.094Z,0
2018-05-13T01:50:02.977Z,0
2018-05-13T01:51:03.068Z,0
2018-05-13T01:52:03.038Z,0
2018-05-13T01:53:03.099Z,0
2018-05-13T01:54:02.975Z,0
2018-05-13T01:55:03.059Z,0
2018-05-13T01:56:03.059Z,0
2018-05-13T01:57:03.087Z,0
2018-05-13T01:58:03.028Z,0
2018-05-13T01:59:02.993Z,0
2018-05-13T02:00:03.125Z,0
2018-05-13T02:01:03.023Z,0
2018-05-13T02:02:03.091Z,0
2018-05-13T02:03:03.086Z,0
2018-05-13T02:04:03.040Z,0
2018-05-13T02:05:03.070Z,0
2018-05-13T02:06:03.063Z,0
2018-05-13T02:07:02.986Z,0
2018-05-13T02:08:03.129Z,0
2018-05-13T02:09:03.079Z,0
2018-05-13T02:10:03.025Z,0
2018-05-13T02:11:03.063Z,0
2018-05-13T02:12:02.992Z,0
2018-05-13T02:13:03.070Z,0
2018-05-13T02:14:02.993Z,0
2018-05-13T02:15:02.998Z,0
2018-05-13T02:16:03.066Z,0
2018-05-13T02:17:02.993Z,0
2018-05-13T02:18:02.998Z,0
2018-05-13T02:19:03.068Z,0
2018-05-13T02:20:03.012Z,0
2018-05-13T02:21:03.078Z,0
2018-05-13T02:22:03.091Z,0
2018-05-13T02:23:03.010Z,0
2018-05-13T02:24:03.014Z,0
2018-05-13T02:25:03.008Z,0
2018-05-13T02:26:03.013Z,0
2018-05-13T02:27:03.084Z,0
2018-05-13T02:28:03.014Z,0
2018-05-13T02:29:03.012Z,0
2018-05-13T02:30:03.015Z,0
2018-05-13T02:31:03.080Z,0
2018-05-13T02:32:03.060Z,0
2018-05-13T02:33:03.144Z,0
2018-05-13T02:34:03.050Z,0
2018-05-13T02:35:03.049Z,0
2018-05-13T02:36:03.050Z,0
2018-05-13T02:37:03.088Z,0
2018-05-13T02:38:03.012Z,0
2018-05-13T02:39:03.102Z,0
2018-05-13T02:40:03.087Z,0
2018-05-13T02:41:03.029Z,0
2018-05-13T02:42:03.099Z,0
2018-05-13T02:43:03.099Z,0
2018-05-13T02:44:03.128Z,0
2018-05-13T02:45:03.097Z,0
2018-05-13T02:46:03.011Z,0
2018-05-13T02:47:03.133Z,0
2018-05-13T02:48:03.015Z,0
2018-05-13T02:49:03.095Z,0
2018-05-13T02:50:03.066Z,0
2018-05-13T02:51:03.027Z,0
2018-05-13T02:52:03.027Z,0
2018-05-13T02:53:03.104Z,0
2018-05-13T02:54:03.029Z,0
2018-05-13T02:55:03.029Z,0
2018-05-13T02:56:03.034Z,0
2018-05-13T02:57:02.997Z,0
2018-05-13T02:58:03.107Z,0
2018-05-13T02:59:03.104Z,0
2018-05-13T03:00:03.036Z,0
2018-05-13T03:01:03.110Z,0
2018-05-13T03:02:03.039Z,0
2018-05-13T03:03:03.034Z,0
2018-05-13T03:04:03.113Z,0
2018-05-13T03:05:03.113Z,0
2018-05-13T03:06:03.038Z,0
2018-05-13T03:07:03.036Z,0
2018-05-13T03:08:03.048Z,0
2018-05-13T03:09:03.043Z,0
2018-05-13T03:10:03.073Z,0
2018-05-13T03:11:03.043Z,0
2018-05-13T03:12:03.043Z,0
2018-05-13T03:13:03.043Z,0
2018-05-13T03:14:03.118Z,0
2018-05-13T03:15:03.043Z,0
2018-05-13T03:16:03.117Z,0
2018-05-13T03:17:03.043Z,0
2018-05-13T03:18:03.086Z,0
2018-05-13T03:19:03.112Z,0
2018-05-13T03:20:03.046Z,0
2018-05-13T03:21:02.915Z,0
2018-05-13T03:22:03.163Z,0
2018-05-13T03:23:03.080Z,0
2018-05-13T03:24:03.142Z,0
2018-05-13T03:25:03.116Z,0
2018-05-13T03:26:03.023Z,0
2018-05-13T03:27:03.056Z,0
2018-05-13T03:28:03.177Z,0
2018-05-13T03:29:03.183Z,0
2018-05-13T03:30:03.132Z,0
2018-05-13T03:31:03.148Z,0
2018-05-13T03:32:03.055Z,0
2018-05-13T03:33:03.089Z,0
2018-05-13T03:34:03.081Z,0
2018-05-13T03:35:03.127Z,0
2018-05-13T03:36:03.130Z,0
2018-05-13T03:37:03.129Z,0
2018-05-13T03:38:03.130Z,0
2018-05-13T03:39:03.135Z,0
2018-05-13T03:40:03.059Z,0
2018-05-13T03:41:03.059Z,0
2018-05-13T03:42:03.083Z,0
2018-05-13T03:43:03.134Z,0
2018-05-13T03:44:03.130Z,0
2018-05-13T03:45:03.071Z,0
2018-05-13T03:46:03.144Z,0
2018-05-13T03:47:03.093Z,0
2018-05-13T03:48:03.082Z,0
2018-05-13T03:49:03.133Z,0
2018-05-13T03:50:03.061Z,0
2018-05-13T03:51:03.133Z,0
2018-05-13T03:52:03.056Z,0
2018-05-13T03:53:03.161Z,0
2018-05-13T03:54:03.115Z,0
2018-05-13T03:55:03.073Z,0
2018-05-13T03:56:03.138Z,0
2018-05-13T03:57:03.054Z,0
2018-05-13T03:58:03.172Z,0
2018-05-13T03:59:03.159Z,0
2018-05-13T04:00:03.141Z,15
2018-05-13T04:01:03.113Z,16
2018-05-13T04:02:03.176Z,17
2018-05-13T04:03:03.115Z,17
2018-05-13T04:04:03.097Z,19
2018-05-13T04:05:03.117Z,19
2018-05-13T04:06:03.142Z,21
2018-05-13T04:07:03.066Z,21
2018-05-13T04:08:03.063Z,22
2018-05-13T04:09:03.068Z,24
2018-05-13T04:10:03.103Z,24
2018-05-13T04:11:03.119Z,25
2018-05-13T04:12:03.080Z,27
2018-05-13T04:13:03.079Z,27
2018-05-13T04:14:03.109Z,28
2018-05-13T04:15:03.079Z,29
2018-05-13T04:16:03.086Z,30
2018-05-13T04:17:03.088Z,30
2018-05-13T04:18:03.154Z,30
2018-05-13T04:19:03.086Z,32
2018-05-13T04:20:03.148Z,32
2018-05-13T04:21:03.089Z,32
2018-05-13T04:22:03.084Z,32
2018-05-13T04:23:03.154Z,32
2018-05-13T04:24:03.090Z,33
2018-05-13T04:25:03.160Z,32
2018-05-13T04:26:03.159Z,31
2018-05-13T04:27:03.052Z,31
2018-05-13T04:28:03.088Z,31
2018-05-13T04:29:03.093Z,31
2018-05-13T04:30:03.169Z,31
2018-05-13T04:31:03.098Z,32
2018-05-13T04:32:03.078Z,33
2018-05-13T04:33:03.158Z,31
2018-05-13T04:34:03.195Z,32
2018-05-13T04:35:03.071Z,33
2018-05-13T04:36:03.082Z,28
2018-05-13T04:37:03.115Z,34
2018-05-13T04:38:03.201Z,34
2018-05-13T04:39:03.135Z,34
2018-05-13T04:40:03.182Z,35
2018-05-13T04:41:03.167Z,35
2018-05-13T04:42:03.164Z,32
2018-05-13T04:43:03.189Z,35
2018-05-13T04:44:03.164Z,35
2018-05-13T04:45:03.190Z,35
2018-05-13T04:46:03.143Z,35
2018-05-13T04:47:03.207Z,33
2018-05-13T04:48:03.070Z,34
2018-05-13T04:49:03.113Z,36
2018-05-13T04:50:03.238Z,37
2018-05-13T04:51:03.136Z,37
2018-05-13T04:52:03.105Z,38
2018-05-13T04:53:03.173Z,38
2018-05-13T04:54:03.143Z,36
2018-05-13T04:55:03.107Z,37
2018-05-13T04:56:03.110Z,40
2018-05-13T04:57:03.112Z,40
2018-05-13T04:58:03.175Z,40
2018-05-13T04:59:03.179Z,40
2018-05-13T05:00:03.110Z,40
2018-05-13T05:01:03.120Z,41
2018-05-13T05:02:03.093Z,41
2018-05-13T05:03:03.197Z,42
2018-05-13T05:04:03.237Z,42
2018-05-13T05:05:03.221Z,42
2018-05-13T05:06:03.082Z,42
2018-05-13T05:07:03.154Z,40
2018-05-13T05:08:03.156Z,42
2018-05-13T05:09:03.177Z,44
2018-05-13T05:10:03.195Z,44
2018-05-13T05:11:03.193Z,45
2018-05-13T05:12:03.155Z,46
2018-05-13T05:13:03.144Z,44
2018-05-13T05:14:03.160Z,47
2018-05-13T05:15:03.155Z,48
2018-05-13T05:16:03.191Z,49
2018-05-13T05:17:03.215Z,51
2018-05-13T05:18:03.224Z,54
2018-05-13T05:19:03.170Z,52
2018-05-13T05:20:03.142Z,57
2018-05-13T05:21:03.211Z,56
2018-05-13T05:22:03.120Z,56
2018-05-13T05:23:03.196Z,57
2018-05-13T05:24:03.128Z,62
2018-05-13T05:25:03.204Z,69
2018-05-13T05:26:03.193Z,76
2018-05-13T05:27:03.127Z,88
2018-05-13T05:28:03.133Z,103
2018-05-13T05:29:03.131Z,116
2018-05-13T05:30:03.205Z,129
2018-05-13T05:31:03.131Z,118
2018-05-13T05:32:03.101Z,146
2018-05-13T05:33:03.184Z,154
2018-05-13T05:34:03.134Z,160
2018-05-13T05:35:03.099Z,162
2018-05-13T05:36:03.140Z,164
2018-05-13T05:37:03.105Z,162
2018-05-13T05:38:03.105Z,163
2018-05-13T05:39:03.181Z,167
2018-05-13T05:40:03.127Z,166
2018-05-13T05:41:03.090Z,166
2018-05-13T05:42:03.206Z,164
2018-05-13T05:43:03.240Z,159
2018-05-13T05:44:03.162Z,155
2018-05-13T05:45:03.237Z,157
2018-05-13T05:46:03.146Z,157
2018-05-13T05:47:03.146Z,156
2018-05-13T05:48:03.184Z,155
2018-05-13T05:49:03.180Z,157
2018-05-13T05:50:03.243Z,160
2018-05-13T05:51:03.112Z,165
2018-05-13T05:52:03.215Z,170
2018-05-13T05:53:03.159Z,176
2018-05-13T05:54:03.150Z,183
2018-05-13T05:56:03.217Z,187
2018-05-13T05:57:03.145Z,193
2018-05-13T05:58:03.151Z,201
2018-05-13T05:59:03.216Z,202
2018-05-13T06:00:03.216Z,199
2018-05-13T06:01:03.220Z,191
2018-05-13T06:02:03.172Z,186
2018-05-13T06:03:03.240Z,185
2018-05-13T06:04:03.193Z,184
2018-05-13T06:05:03.120Z,189
2018-05-13T06:06:03.189Z,192
2018-05-13T06:07:03.193Z,200
2018-05-13T06:08:03.238Z,196
2018-05-13T06:09:03.246Z,194
2018-05-13T06:10:03.140Z,192
2018-05-13T06:11:03.246Z,179
2018-05-13T06:12:03.141Z,180
2018-05-13T06:13:03.223Z,177
2018-05-13T06:14:03.181Z,171
2018-05-13T06:15:03.192Z,187
2018-05-13T06:16:03.263Z,181
2018-05-13T06:17:03.194Z,167
2018-05-13T06:18:03.288Z,153
2018-05-13T06:19:03.205Z,149
2018-05-13T06:20:03.232Z,150
2018-05-13T06:21:03.226Z,141
2018-05-13T06:22:03.163Z,138
2018-05-13T06:23:03.161Z,129
2018-05-13T06:24:03.164Z,128
2018-05-13T06:25:03.170Z,131
2018-05-13T06:26:03.232Z,131
2018-05-13T06:27:03.174Z,129
2018-05-13T06:28:03.165Z,134
2018-05-13T06:29:03.238Z,134
2018-05-13T06:30:03.164Z,128
2018-05-13T06:31:03.169Z,124
2018-05-13T06:32:03.157Z,130
2018-05-13T06:33:03.264Z,131
2018-05-13T06:34:03.213Z,131
2018-05-13T06:35:03.145Z,139
2018-05-13T06:36:03.262Z,145
2018-05-13T06:37:03.176Z,149
2018-05-13T06:38:03.204Z,123
2018-05-13T06:39:03.167Z,149
2018-05-13T06:40:03.146Z,134
2018-05-13T06:41:03.269Z,144
2018-05-13T06:42:03.206Z,153
2018-05-13T06:43:03.216Z,118
2018-05-13T06:44:03.286Z,153
2018-05-13T06:45:03.204Z,158
2018-05-13T06:46:03.183Z,161
2018-05-13T06:47:03.220Z,164
2018-05-13T06:48:03.246Z,188
2018-05-13T06:49:03.246Z,198
2018-05-13T06:50:03.208Z,200
2018-05-13T06:51:03.372Z,215
2018-05-13T06:52:03.246Z,227
2018-05-13T06:53:03.247Z,211
2018-05-13T06:54:03.173Z,406
2018-05-13T06:55:03.255Z,377
2018-05-13T06:56:03.208Z,357
2018-05-13T06:57:03.247Z,329
2018-05-13T06:58:03.254Z,415
2018-05-13T06:59:03.221Z,430
2018-05-13T07:00:03.215Z,405
2018-05-13T07:01:03.162Z,449
2018-05-13T07:02:03.182Z,400
2018-05-13T07:03:03.162Z,351
2018-05-13T07:04:03.249Z,372
2018-05-13T07:05:03.269Z,382
2018-05-13T07:06:03.250Z,417
2018-05-13T07:07:03.178Z,367
2018-05-13T07:08:03.180Z,397
2018-05-13T07:09:03.183Z,375
2018-05-13T07:10:03.257Z,345
2018-05-13T07:11:03.248Z,338
2018-05-13T07:12:03.256Z,410
2018-05-13T07:13:03.256Z,482
2018-05-13T07:14:03.191Z,508
2018-05-13T07:15:03.187Z,542
2018-05-13T07:16:03.258Z,495
2018-05-13T07:17:03.185Z,504
2018-05-13T07:18:03.212Z,462
2018-05-13T07:19:03.177Z,471
2018-05-13T07:20:03.264Z,511
2018-05-13T07:21:03.204Z,530
2018-05-13T07:22:03.294Z,572
2018-05-13T07:23:03.229Z,546
2018-05-13T07:24:03.312Z,517
2018-05-13T07:25:03.307Z,553
2018-05-13T07:26:03.169Z,551
2018-05-13T07:27:03.300Z,464
2018-05-13T07:28:03.236Z,488
2018-05-13T07:29:03.244Z,424
2018-05-13T07:30:03.196Z,385
2018-05-13T07:31:03.238Z,375
2018-05-13T07:32:03.273Z,409
2018-05-13T07:33:03.237Z,431
2018-05-13T07:34:03.201Z,473
2018-05-13T07:35:03.275Z,542
2018-05-13T07:36:03.281Z,625
2018-05-13T07:37:03.232Z,642
2018-05-13T07:38:03.338Z,664
2018-05-13T07:39:03.234Z,675
2018-05-13T07:40:03.215Z,678
2018-05-13T07:41:03.279Z,690
2018-05-13T07:42:03.283Z,694
2018-05-13T07:43:03.214Z,677
2018-05-13T07:44:03.282Z,683
2018-05-13T07:45:03.253Z,683
2018-05-13T07:46:03.221Z,672
2018-05-13T07:47:03.250Z,645
2018-05-13T07:48:03.221Z,639
2018-05-13T07:49:03.221Z,610
2018-05-13T07:50:03.231Z,673
2018-05-13T07:51:03.254Z,689
2018-05-13T07:52:03.288Z,696
2018-05-13T07:53:03.221Z,708
2018-05-13T07:54:03.231Z,727
2018-05-13T07:55:03.295Z,729
2018-05-13T07:56:03.289Z,730
2018-05-13T07:57:03.297Z,722
2018-05-13T07:58:03.228Z,708
2018-05-13T07:59:03.301Z,728
2018-05-13T08:00:03.224Z,734
2018-05-13T08:01:03.225Z,737
2018-05-13T08:02:03.316Z,739
2018-05-13T08:03:03.326Z,741
2018-05-13T08:04:03.202Z,748
2018-05-13T08:05:03.221Z,751
2018-05-13T08:06:03.315Z,753
2018-05-13T08:07:03.223Z,755
2018-05-13T08:08:03.202Z,758
2018-05-13T08:09:03.221Z,763
2018-05-13T08:10:03.320Z,760
2018-05-13T08:11:03.330Z,729
2018-05-13T08:12:03.244Z,734
2018-05-13T08:13:03.243Z,732
2018-05-13T08:14:03.307Z,747
2018-05-13T08:15:03.207Z,746
2018-05-13T08:16:03.228Z,729
2018-05-13T08:17:03.188Z,735
2018-05-13T08:18:03.227Z,748
2018-05-13T08:19:03.195Z,753
2018-05-13T08:20:03.177Z,749
2018-05-13T08:21:03.295Z,769
2018-05-13T08:22:03.313Z,777
2018-05-13T08:23:03.237Z,791
2018-05-13T08:24:03.315Z,797
2018-05-13T08:25:03.272Z,801
2018-05-13T08:26:03.309Z,798
2018-05-13T08:27:03.244Z,804
2018-05-13T08:28:03.317Z,804
2018-05-13T08:29:03.325Z,792
2018-05-13T08:30:03.246Z,799
2018-05-13T08:31:03.317Z,804
2018-05-13T08:32:03.246Z,805
2018-05-13T08:33:03.247Z,790
2018-05-13T08:34:03.319Z,816
2018-05-13T08:35:03.254Z,743
2018-05-13T08:36:03.317Z,772
2018-05-13T08:37:03.246Z,746
2018-05-13T08:38:03.250Z,735
2018-05-13T08:39:03.278Z,706
2018-05-13T08:40:03.349Z,720
2018-05-13T08:41:03.253Z,727
2018-05-13T08:42:03.265Z,746
2018-05-13T08:43:03.315Z,647
2018-05-13T08:44:03.220Z,694
2018-05-13T08:45:03.227Z,703
2018-05-13T08:46:03.318Z,783
2018-05-13T08:47:03.311Z,854
2018-05-13T08:48:03.321Z,861
2018-05-13T08:49:03.228Z,869
2018-05-13T08:50:03.215Z,865
2018-05-13T08:51:03.318Z,873
2018-05-13T08:52:03.258Z,877
2018-05-13T08:53:03.312Z,883
2018-05-13T08:54:03.231Z,876
2018-05-13T08:55:03.288Z,676
2018-05-13T08:56:03.215Z,895
2018-05-13T08:57:03.310Z,890
2018-05-13T08:58:03.189Z,893
2018-05-13T08:59:03.192Z,892
2018-05-13T09:00:03.322Z,892
2018-05-13T09:01:03.319Z,897
2018-05-13T09:02:03.273Z,898
2018-05-13T09:03:03.336Z,900
2018-05-13T09:04:03.391Z,902
2018-05-13T09:05:03.234Z,903
2018-05-13T09:06:03.241Z,847
2018-05-13T09:07:03.334Z,888
2018-05-13T09:08:03.299Z,865
2018-05-13T09:09:03.337Z,758
2018-05-13T09:10:03.298Z,637
2018-05-13T09:11:03.312Z,705
2018-05-13T09:12:03.341Z,716
2018-05-13T09:13:03.370Z,812
2018-05-13T09:14:03.475Z,916
2018-05-13T09:15:03.365Z,915
2018-05-13T09:16:03.312Z,947
2018-05-13T09:17:03.266Z,941
2018-05-13T09:18:03.258Z,942
2018-05-13T09:19:03.305Z,941
2018-05-13T09:20:03.306Z,943
2018-05-13T09:21:03.270Z,944
2018-05-13T09:22:03.251Z,924
2018-05-13T09:23:03.367Z,891
2018-05-13T09:24:03.249Z,904
2018-05-13T09:25:03.344Z,907
2018-05-13T09:26:03.369Z,908
2018-05-13T09:27:03.309Z,919
2018-05-13T09:28:03.271Z,934
2018-05-13T09:29:03.388Z,930
2018-05-13T09:30:03.355Z,931
2018-05-13T09:31:03.332Z,916
2018-05-13T09:32:03.288Z,921
2018-05-13T09:33:03.342Z,911
2018-05-13T09:34:03.309Z,942
2018-05-13T09:35:03.425Z,944
2018-05-13T09:36:03.329Z,949
2018-05-13T09:37:03.372Z,944
2018-05-13T09:38:03.321Z,947
2018-05-13T09:39:03.315Z,935
2018-05-13T09:40:03.393Z,923
2018-05-13T09:41:03.318Z,928
2018-05-13T09:42:03.294Z,940
2018-05-13T09:43:03.353Z,936
2018-05-13T09:44:03.342Z,931
2018-05-13T09:45:03.295Z,944
2018-05-13T09:46:03.260Z,936
2018-05-13T09:47:03.281Z,949
2018-05-13T09:48:03.356Z,955
2018-05-13T09:49:03.286Z,961
2018-05-13T09:50:03.268Z,840
2018-05-13T09:51:03.317Z,774
2018-05-13T09:52:03.356Z,838
2018-05-13T09:53:03.229Z,972
2018-05-13T09:54:03.192Z,990
2018-05-13T09:55:03.267Z,971
2018-05-13T09:56:03.287Z,997
2018-05-13T09:57:03.178Z,985
2018-05-13T09:58:03.229Z,986
2018-05-13T09:59:03.183Z,949
2018-05-13T10:00:03.190Z,942
2018-05-13T10:01:03.235Z,898
2018-05-13T10:02:03.299Z,886
2018-05-13T10:03:03.345Z,757
2018-05-13T10:04:03.388Z,817
2018-05-13T10:05:03.275Z,849
2018-05-13T10:06:03.405Z,795
2018-05-13T10:07:03.344Z,853
2018-05-13T10:08:03.335Z,807
2018-05-13T10:09:03.346Z,907
2018-05-13T10:10:03.351Z,899
2018-05-13T10:11:03.336Z,987
2018-05-13T10:12:03.334Z,1012
2018-05-13T10:13:03.279Z,1018
2018-05-13T10:14:03.394Z,984
2018-05-13T10:15:03.390Z,956
2018-05-13T10:16:03.300Z,969
2018-05-13T10:17:03.413Z,935
2018-05-13T10:18:03.376Z,960
2018-05-13T10:19:03.353Z,914
2018-05-13T10:20:03.416Z,905
2018-05-13T10:21:03.358Z,1010
2018-05-13T10:22:03.417Z,999
2018-05-13T10:23:03.403Z,959
2018-05-13T10:24:03.337Z,1022
2018-05-13T10:25:03.355Z,972
2018-05-13T10:26:03.413Z,1003
2018-05-13T10:27:03.384Z,992
2018-05-13T10:28:03.405Z,956
2018-05-13T10:29:03.419Z,1011
2018-05-13T10:30:03.386Z,995
2018-05-13T10:31:03.390Z,1028
2018-05-13T10:32:03.417Z,1048
2018-05-13T10:33:03.288Z,1047
2018-05-13T10:34:03.365Z,1014
2018-05-13T10:35:03.355Z,935
2018-05-13T10:36:03.425Z,949
2018-05-13T10:37:03.328Z,949
2018-05-13T10:38:03.313Z,952
2018-05-13T10:39:03.421Z,906
2018-05-13T10:40:03.394Z,1019
2018-05-13T10:41:03.468Z,1017
2018-05-13T10:42:03.360Z,1041
2018-05-13T10:43:03.334Z,1041
2018-05-13T10:44:03.399Z,992
2018-05-13T10:45:03.329Z,1013
2018-05-13T10:46:03.400Z,1054
2018-05-13T10:47:03.399Z,988
2018-05-13T10:48:03.337Z,1022
2018-05-13T10:49:03.402Z,1014
2018-05-13T10:50:03.398Z,1000
2018-05-13T10:51:03.338Z,1046
2018-05-13T10:52:03.335Z,1019
2018-05-13T10:53:03.303Z,980
2018-05-13T10:54:03.380Z,982
2018-05-13T10:55:03.386Z,1082
2018-05-13T10:56:03.430Z,1065
2018-05-13T10:57:03.403Z,1017
2018-05-13T10:58:03.434Z,1050
2018-05-13T10:59:03.363Z,1027
2018-05-13T11:00:03.362Z,1028
2018-05-13T11:01:03.332Z,1046
2018-05-13T11:02:03.440Z,1020
2018-05-13T11:03:03.314Z,1000
2018-05-13T11:04:03.265Z,953
2018-05-13T11:05:03.355Z,934
2018-05-13T11:06:03.305Z,832
2018-05-13T11:07:03.269Z,899
2018-05-13T11:08:03.309Z,1034
2018-05-13T11:09:03.269Z,1005
2018-05-13T11:10:03.270Z,901
2018-05-13T11:11:03.336Z,911
2018-05-13T11:12:03.271Z,929
2018-05-13T11:13:03.346Z,886
2018-05-13T11:14:03.309Z,927
2018-05-13T11:15:03.417Z,1018
2018-05-13T11:16:03.415Z,952
2018-05-13T11:17:03.352Z,1076
2018-05-13T11:18:03.355Z,1076
2018-05-13T11:19:03.309Z,1062
2018-05-13T11:20:03.354Z,1081
2018-05-13T11:21:03.357Z,1035
2018-05-13T11:22:03.421Z,1025
2018-05-13T11:23:03.392Z,898
2018-05-13T11:24:03.387Z,1024
2018-05-13T11:25:03.376Z,1060
2018-05-13T11:26:03.426Z,1082
2018-05-13T11:27:03.330Z,1078
2018-05-13T11:28:03.379Z,1096
2018-05-13T11:29:03.459Z,1108
2018-05-13T11:30:03.467Z,332
2018-05-13T11:31:03.389Z,1110
2018-05-13T11:32:03.386Z,1072
2018-05-13T11:33:03.375Z,1040
2018-05-13T11:34:03.372Z,1031
2018-05-13T11:35:03.376Z,1045
2018-05-13T11:36:03.334Z,722
2018-05-13T11:37:03.324Z,1025
2018-05-13T11:38:03.378Z,1043
2018-05-13T11:40:03.288Z,979
2018-05-13T11:41:03.329Z,1026
2018-05-13T11:42:03.386Z,1071
2018-05-13T11:43:03.435Z,1086
2018-05-13T11:44:03.403Z,1041
2018-05-13T11:45:03.412Z,263
2018-05-13T11:46:03.362Z,234
2018-05-13T11:47:03.359Z,241
2018-05-13T11:48:03.436Z,287
2018-05-13T11:49:03.400Z,1129
2018-05-13T11:50:03.457Z,1110
2018-05-13T11:51:03.413Z,1103
2018-05-13T11:52:03.345Z,1077
2018-05-13T11:53:03.342Z,1071
2018-05-13T11:54:03.476Z,1095
2018-05-13T11:55:03.474Z,1076
2018-05-13T11:56:03.482Z,1063
2018-05-13T11:57:03.470Z,834
2018-05-13T11:58:03.481Z,1073
2018-05-13T11:59:03.446Z,1065
2018-05-13T12:00:03.463Z,1016
2018-05-13T12:01:03.413Z,1021
2018-05-13T12:02:03.489Z,1070
2018-05-13T12:03:03.446Z,1055
2018-05-13T12:04:03.383Z,1065
2018-05-13T12:05:03.447Z,581
2018-05-13T12:06:03.383Z,325
2018-05-13T12:07:03.450Z,1028
2018-05-13T12:08:03.418Z,1089
2018-05-13T12:10:03.463Z,799
2018-05-13T12:11:03.384Z,359
2018-05-13T12:12:03.456Z,313
2018-05-13T12:13:03.483Z,455
2018-05-13T12:14:03.497Z,877
2018-05-13T12:15:03.373Z,306
2018-05-13T12:16:03.362Z,313
2018-05-13T12:17:03.427Z,1028
2018-05-13T12:18:03.384Z,1011
2018-05-13T12:19:03.434Z,1059
2018-05-13T12:20:03.463Z,1055
2018-05-13T12:21:03.439Z,1019
2018-05-13T12:22:03.440Z,1000
2018-05-13T12:23:03.483Z,966
2018-05-13T12:24:03.434Z,1020
2018-05-13T12:25:03.489Z,996
2018-05-13T12:26:03.385Z,983
2018-05-13T12:27:03.480Z,1011
2018-05-13T12:28:03.368Z,974
2018-05-13T12:29:03.509Z,925
2018-05-13T12:30:03.493Z,943
2018-05-13T12:31:03.431Z,923
2018-05-13T12:32:03.444Z,306
2018-05-13T12:33:03.467Z,505
2018-05-13T12:34:03.406Z,262
2018-05-13T12:35:03.463Z,258
2018-05-13T12:36:03.467Z,272
2018-05-13T12:37:03.399Z,287
2018-05-13T12:38:03.444Z,391
2018-05-13T12:39:03.471Z,348
2018-05-13T12:40:03.432Z,347
2018-05-13T12:41:03.406Z,532
2018-05-13T12:42:03.429Z,620
2018-05-13T12:43:03.451Z,889
2018-05-13T12:44:03.538Z,449
2018-05-13T12:45:03.451Z,1112
2018-05-13T12:46:03.401Z,1068
2018-05-13T12:47:03.492Z,1123
2018-05-13T12:48:03.454Z,1118
2018-05-13T12:49:03.476Z,584
2018-05-13T12:50:03.448Z,1040
2018-05-13T12:51:03.419Z,1033
2018-05-13T12:52:03.398Z,1023
2018-05-13T12:53:03.480Z,961
2018-05-13T12:54:03.483Z,787
2018-05-13T12:55:03.442Z,518
2018-05-13T12:56:03.443Z,1062
2018-05-13T12:57:03.451Z,1049
2018-05-13T12:58:03.520Z,480
2018-05-13T12:59:03.480Z,868
2018-05-13T13:00:03.457Z,286
2018-05-13T13:01:03.388Z,264
2018-05-13T13:02:03.522Z,264
2018-05-13T13:03:03.432Z,282
2018-05-13T13:04:03.435Z,309
2018-05-13T13:05:03.386Z,299
2018-05-13T13:06:03.338Z,291
2018-05-13T13:07:03.339Z,288
2018-05-13T13:08:03.384Z,285
2018-05-13T13:09:03.463Z,276
2018-05-13T13:10:03.347Z,268
2018-05-13T13:11:03.432Z,258
2018-05-13T13:12:03.340Z,249
2018-05-13T13:13:03.425Z,243
2018-05-13T13:14:03.472Z,244
2018-05-13T13:15:03.353Z,250
2018-05-13T13:16:03.472Z,296
2018-05-13T13:17:03.387Z,388
2018-05-13T13:18:03.424Z,608
2018-05-13T13:19:03.429Z,335
2018-05-13T13:20:03.528Z,358
2018-05-13T13:21:03.395Z,359
2018-05-13T13:22:03.483Z,1095
2018-05-13T13:23:03.497Z,1087
2018-05-13T13:24:03.523Z,1066
2018-05-13T13:25:03.455Z,1083
2018-05-13T13:26:03.502Z,935
2018-05-13T13:27:03.409Z,1085
2018-05-13T13:28:03.478Z,1055
2018-05-13T13:29:03.503Z,1064
2018-05-13T13:30:03.498Z,1054
2018-05-13T13:31:03.502Z,359
2018-05-13T13:32:03.465Z,412
2018-05-13T13:33:03.433Z,589
2018-05-13T13:34:03.508Z,450
2018-05-13T13:35:03.438Z,701
2018-05-13T13:36:03.440Z,853
2018-05-13T13:37:03.442Z,514
2018-05-13T13:38:03.508Z,538
2018-05-13T13:39:03.441Z,444
2018-05-13T13:40:03.511Z,432
2018-05-13T13:41:03.511Z,319
2018-05-13T13:42:03.439Z,607
2018-05-13T13:43:03.535Z,572
2018-05-13T13:44:03.543Z,285
2018-05-13T13:45:03.551Z,199
2018-05-13T13:46:03.491Z,201
2018-05-13T13:47:03.513Z,214
2018-05-13T13:48:03.476Z,238
2018-05-13T13:49:03.534Z,724
2018-05-13T13:50:03.416Z,880
2018-05-13T13:51:03.490Z,874
2018-05-13T13:52:03.477Z,894
2018-05-13T13:53:03.465Z,861
2018-05-13T13:54:03.532Z,659
2018-05-13T13:55:03.548Z,895
2018-05-13T13:56:03.480Z,883
2018-05-13T13:57:03.479Z,863
2018-05-13T13:58:03.491Z,864
2018-05-13T13:59:03.484Z,178
2018-05-13T14:00:03.499Z,177
2018-05-13T14:01:03.523Z,192
2018-05-13T14:02:03.542Z,231
2018-05-13T14:03:03.495Z,821
2018-05-13T14:04:03.548Z,845
2018-05-13T14:05:03.552Z,836